Time;durP1;ratioP1;P1;durP2;ratioP2;P2;SDS_P1;SDS_P2;PMS_P1;PMS_P2;Temp;Humidity;BMP_temperature;BMP_pressure;BME280_temperature;BME280_humidity;BME280_pressure;Samples;Min_cycle;Max_cycle;Signal;HPM_P1;HPM_P2
2022/01/06 00:07:57;;;;;;;3.45;0.55;;;12.00;59.50;;;;;;20617279;28;20042;-79
2022/01/06 00:28:02;;;;;;;1.00;0.40;;;12.10;59.60;;;;;;20633292;28;20429;-78
2022/01/06 00:38:07;;;;;;;1.08;0.30;;;12.10;59.60;;;;;;20632446;28;20034;-79
2022/01/06 00:48:11;;;;;;;1.38;0.38;;;12.10;59.90;;;;;;20603891;28;20049;-79
2022/01/06 00:58:14;;;;;;;1.52;0.30;;;12.10;59.70;;;;;;20630745;28;20046;-79
2022/01/06 01:08:15;;;;;;;2.83;0.50;;;12.00;59.60;;;;;;20628645;28;20443;-79
2022/01/06 01:18:19;;;;;;;1.80;0.32;;;12.00;59.60;;;;;;20643299;28;20117;-79
2022/01/06 01:28:19;;;;;;;2.00;0.20;;;12.00;59.60;;;;;;20674418;28;20042;-77
2022/01/06 01:38:20;;;;;;;1.58;0.40;;;12.00;59.50;;;;;;20675979;28;20045;-78
2022/01/06 01:48:31;;;;;;;2.17;0.40;;;12.00;59.40;;;;;;20640936;28;20034;-78
2022/01/06 01:58:35;;;;;;;1.25;0.30;;;12.00;59.30;;;;;;20640946;28;20297;-78
2022/01/06 02:08:36;;;;;;;1.20;0.25;;;12.00;59.20;;;;;;20654838;28;20390;-78
2022/01/06 02:18:37;;;;;;;0.65;0.28;;;12.00;59.10;;;;;;20655549;28;20065;-78
2022/01/06 02:28:40;;;;;;;0.45;0.43;;;11.90;59.00;;;;;;20638572;28;20476;-78
2022/01/06 02:38:41;;;;;;;1.23;0.22;;;12.00;58.90;;;;;;20638571;28;20058;-78
2022/01/06 02:48:42;;;;;;;1.55;0.30;;;12.00;58.80;;;;;;20652210;28;20046;-78
2022/01/06 02:58:42;;;;;;;0.90;0.10;;;11.90;58.70;;;;;;20636034;28;20477;-79
2022/01/06 03:08:44;;;;;;;2.00;0.65;;;11.90;58.60;;;;;;20634439;28;20038;-78
2022/01/06 03:18:46;;;;;;;0.85;0.20;;;11.90;58.50;;;;;;20634220;28;20073;-76
2022/01/06 03:28:47;;;;;;;1.45;0.32;;;11.90;58.50;;;;;;20617112;28;20443;-79
2022/01/06 03:38:47;;;;;;;1.33;0.30;;;11.90;58.50;;;;;;20722253;28;20133;-80
2022/01/06 03:48:49;;;;;;;0.43;0.30;;;11.90;58.40;;;;;;20730834;28;20046;-79
2022/01/06 03:58:51;;;;;;;0.82;0.82;;;11.90;58.40;;;;;;20714059;28;20064;-80
2022/01/06 04:08:52;;;;;;;0.55;0.38;;;11.90;58.30;;;;;;20745400;28;20034;-79
2022/01/06 04:18:52;;;;;;;1.70;0.50;;;11.90;58.30;;;;;;20712043;28;20049;-79
2022/01/06 04:28:56;;;;;;;1.40;0.60;;;11.90;58.20;;;;;;20710660;28;20034;-79
2022/01/06 04:38:57;;;;;;;1.83;0.50;;;11.90;58.10;;;;;;20760396;28;20686;-79
2022/01/06 04:48:58;;;;;;;1.23;0.30;;;11.90;58.10;;;;;;20726263;28;20061;-79
2022/01/06 04:58:59;;;;;;;2.75;0.60;;;11.90;58.10;;;;;;20742893;28;20053;-80
2022/01/06 05:08:59;;;;;;;2.55;0.35;;;11.80;58.00;;;;;;20758145;28;20092;-79
2022/01/06 05:19:00;;;;;;;0.63;0.30;;;12.10;57.50;;;;;;20708583;28;20053;-80
2022/01/06 05:29:00;;;;;;;1.30;0.30;;;13.10;55.70;;;;;;20706919;28;20144;-81
2022/01/06 05:39:01;;;;;;;0.40;0.40;;;14.00;53.50;;;;;;20721936;28;20042;-76
2022/01/06 05:49:02;;;;;;;0.53;0.50;;;14.70;51.60;;;;;;20701080;28;20396;-77
2022/01/06 05:59:02;;;;;;;0.52;0.30;;;15.20;50.20;;;;;;20720466;28;20276;-78
2022/01/06 06:09:03;;;;;;;0.77;0.22;;;15.40;49.50;;;;;;20704293;28;20042;-76
2022/01/06 06:19:04;;;;;;;1.17;0.35;;;15.40;49.20;;;;;;20736365;28;20033;-79
2022/01/06 06:29:04;;;;;;;0.80;0.20;;;15.00;49.60;;;;;;20660513;28;20096;-79
2022/01/06 06:39:05;;;;;;;1.25;0.28;;;14.30;50.90;;;;;;20644099;28;20030;-78
2022/01/06 06:49:05;;;;;;;0.22;0.10;;;13.60;52.30;;;;;;20650711;28;20416;-80
2022/01/06 06:59:06;;;;;;;1.95;0.30;;;13.10;53.50;;;;;;20653073;28;20061;-80
2022/01/06 07:09:08;;;;;;;0.82;0.30;;;12.60;54.60;;;;;;20715578;28;20054;-77
2022/01/06 07:19:10;;;;;;;1.50;0.30;;;12.30;55.40;;;;;;20711092;28;20033;-76
2022/01/06 07:29:11;;;;;;;1.88;0.30;;;12.10;56.20;;;;;;20688080;28;20042;-75
2022/01/06 07:39:13;;;;;;;1.48;0.35;;;11.90;56.60;;;;;;20647817;28;20038;-75
2022/01/06 07:49:14;;;;;;;0.60;0.25;;;11.90;57.00;;;;;;20612093;28;20035;-75
2022/01/06 07:59:15;;;;;;;1.23;0.43;;;11.80;57.20;;;;;;20664445;28;20035;-74
2022/01/06 08:09:17;;;;;;;0.32;0.20;;;11.80;57.40;;;;;;20644612;28;20054;-74
2022/01/06 08:19:18;;;;;;;1.13;0.30;;;11.90;57.50;;;;;;20645936;28;20068;-76
2022/01/06 08:29:18;;;;;;;0.80;0.40;;;11.80;57.60;;;;;;20622190;28;20101;-77
2022/01/06 08:39:20;;;;;;;0.60;0.40;;;11.80;57.60;;;;;;20587127;28;20128;-76
2022/01/06 08:49:24;;;;;;;1.52;0.57;;;11.80;57.70;;;;;;20595498;28;20042;-77
2022/01/06 08:59:26;;;;;;;1.65;1.00;;;11.70;57.80;;;;;;20610119;28;20046;-76
2022/01/06 09:09:29;;;;;;;0.30;0.20;;;11.70;58.00;;;;;;20579982;28;20113;-78
2022/01/06 09:19:30;;;;;;;0.90;0.60;;;11.60;58.20;;;;;;20622771;28;20374;-78
2022/01/06 09:29:31;;;;;;;0.85;0.40;;;11.60;58.40;;;;;;20610560;28;20043;-76
2022/01/06 09:39:31;;;;;;;1.77;0.57;;;11.50;58.50;;;;;;20607132;28;20030;-80
2022/01/06 09:49:37;;;;;;;2.23;0.50;;;11.50;58.70;;;;;;20618188;28;20047;-81
2022/01/06 09:59:41;;;;;;;0.85;0.47;;;11.50;58.80;;;;;;20594725;28;20294;-77
2022/01/06 10:09:45;;;;;;;2.05;0.82;;;11.40;58.90;;;;;;20671850;28;20038;-79
2022/01/06 10:19:48;;;;;;;1.42;0.45;;;11.40;59.00;;;;;;20619969;28;20397;-81
2022/01/06 10:29:50;;;;;;;1.73;0.60;;;11.40;59.10;;;;;;20653374;28;20046;-74
2022/01/06 10:39:53;;;;;;;3.63;0.80;;;11.40;59.20;;;;;;20660159;28;20117;-78
2022/01/06 10:50:05;;;;;;;5.53;0.70;;;11.40;59.50;;;;;;20642154;28;20038;-77
2022/01/06 11:00:08;;;;;;;3.60;0.93;;;11.30;59.60;;;;;;20620565;28;20031;-78
2022/01/06 11:10:16;;;;;;;2.20;0.75;;;11.30;59.70;;;;;;20641077;28;20045;-79
2022/01/06 11:20:24;;;;;;;1.08;0.75;;;11.70;59.10;;;;;;20632514;28;20038;-78
2022/01/06 11:30:27;;;;;;;1.55;0.90;;;12.70;56.80;;;;;;20628800;28;20424;-77
2022/01/06 11:40:34;;;;;;;3.00;0.85;;;13.60;54.40;;;;;;20978917;23;20113;-77
2022/01/06 11:50:37;;;;;;;2.08;0.88;;;13.30;54.30;;;;;;20560343;28;20073;-75
2022/01/06 12:00:42;;;;;;;3.38;1.02;;;12.80;55.10;;;;;;20592712;28;20034;-78
2022/01/06 12:10:44;;;;;;;1.73;1.00;;;12.40;55.80;;;;;;20701598;28;20144;-74
2022/01/06 12:20:45;;;;;;;3.13;0.73;;;12.20;56.50;;;;;;20625602;28;20045;-74
2022/01/06 12:30:45;;;;;;;3.03;1.10;;;11.90;57.10;;;;;;20628918;28;20114;-75
2022/01/06 12:40:46;;;;;;;2.28;0.65;;;11.70;57.60;;;;;;20626158;28;20397;-75
2022/01/06 12:50:49;;;;;;;3.15;1.23;;;11.50;57.90;;;;;;20655751;28;20034;-75
2022/01/06 13:00:55;;;;;;;2.38;1.00;;;11.40;58.30;;;;;;20655492;28;20042;-77
2022/01/06 13:11:03;;;;;;;1.30;0.60;;;11.30;58.40;;;;;;20653224;28;20038;-76
2022/01/06 13:21:04;;;;;;;5.18;0.95;;;11.40;58.70;;;;;;20636230;28;20392;-73
2022/01/06 13:31:15;;;;;;;3.08;1.10;;;11.40;58.70;;;;;;20659913;28;20073;-75
2022/01/06 13:41:24;;;;;;;3.45;1.05;;;11.40;58.80;;;;;;20662000;28;20355;-74
2022/01/06 13:51:27;;;;;;;2.22;0.68;;;11.40;58.70;;;;;;20641319;28;20046;-75
2022/01/06 14:01:29;;;;;;;4.38;1.13;;;11.40;58.70;;;;;;20646437;28;20038;-74
2022/01/06 14:11:29;;;;;;;4.30;0.85;;;11.40;58.70;;;;;;20646607;28;20035;-75
2022/01/06 14:21:30;;;;;;;4.22;0.90;;;11.60;58.60;;;;;;20658815;28;20034;-76
2022/01/06 14:31:31;;;;;;;1.23;0.73;;;11.80;58.10;;;;;;20629941;28;20045;-76
2022/01/06 14:41:32;;;;;;;3.13;0.70;;;12.10;57.40;;;;;;20630460;28;20042;-74
2022/01/06 14:51:33;;;;;;;3.17;0.75;;;12.20;56.90;;;;;;20645890;28;20035;-77
2022/01/06 15:01:36;;;;;;;1.30;0.52;;;12.10;57.00;;;;;;20660305;28;20060;-78
2022/01/06 15:11:37;;;;;;;5.50;1.15;;;12.00;57.40;;;;;;20640052;28;20049;-79
2022/01/06 15:21:41;;;;;;;4.53;0.75;;;11.80;57.80;;;;;;20567146;28;20488;-80
2022/01/06 15:31:41;;;;;;;1.60;0.65;;;11.60;58.20;;;;;;20562631;28;20522;-80
2022/01/06 15:41:43;;;;;;;6.43;2.17;;;11.50;58.60;;;;;;20558157;28;20043;-77
2022/01/06 15:51:44;;;;;;;9.60;2.55;;;11.80;58.20;;;;;;20554500;28;20046;-75
2022/01/06 16:11:57;;;;;;;6.07;1.98;;;14.40;54.00;;;;;;20653711;28;20491;-78
2022/01/06 16:21:58;;;;;;;5.65;1.60;;;15.30;51.00;;;;;;20623106;28;20042;-77
2022/01/06 16:32:15;;;;;;;12.73;3.33;;;15.60;50.00;;;;;;20619316;28;20034;-80
2022/01/06 16:42:16;;;;;;;21.50;3.75;;;15.90;49.90;;;;;;20625707;28;20042;-82
2022/01/06 16:52:16;;;;;;;14.77;3.20;;;15.60;50.00;;;;;;20617190;28;20044;-80
2022/01/06 17:02:17;;;;;;;6.32;2.92;;;14.80;50.90;;;;;;20645404;28;20313;-82
2022/01/06 17:12:18;;;;;;;6.90;2.58;;;13.90;52.20;;;;;;20645489;28;20034;-83
2022/01/06 17:22:22;;;;;;;5.57;2.33;;;13.30;53.50;;;;;;20603804;28;20105;-81
2022/01/06 17:32:27;;;;;;;7.47;2.50;;;12.80;54.70;;;;;;20649586;28;20035;-80
2022/01/06 17:42:28;;;;;;;8.48;2.42;;;12.40;55.70;;;;;;20640147;28;20473;-77
2022/01/06 17:52:29;;;;;;;4.47;2.63;;;12.10;56.50;;;;;;20655616;28;20050;-81
2022/01/06 18:02:31;;;;;;;6.35;2.42;;;11.90;57.00;;;;;;20639136;28;20425;-80
2022/01/06 18:12:32;;;;;;;5.63;2.15;;;11.90;57.20;;;;;;20638532;28;20080;-80
2022/01/06 18:22:33;;;;;;;6.75;2.40;;;11.90;57.40;;;;;;20636530;28;20473;-80
2022/01/06 18:32:33;;;;;;;6.33;2.47;;;12.00;57.40;;;;;;20625603;28;20319;-78
2022/01/06 18:42:34;;;;;;;4.63;2.00;;;12.00;57.30;;;;;;20636367;28;20663;-75
2022/01/06 18:52:35;;;;;;;5.97;1.88;;;12.10;57.20;;;;;;20628609;28;20062;-79
2022/01/06 19:02:36;;;;;;;3.17;1.83;;;12.10;57.10;;;;;;20624797;28;20030;-78
2022/01/06 19:12:37;;;;;;;6.70;2.55;;;12.20;57.10;;;;;;20625632;28;20030;-78
2022/01/06 19:22:38;;;;;;;4.78;2.28;;;12.20;57.10;;;;;;20631181;28;20076;-77
2022/01/06 19:32:43;;;;;;;4.50;2.10;;;12.20;57.00;;;;;;20630815;28;20107;-77
2022/01/06 19:42:46;;;;;;;3.78;2.20;;;12.20;56.90;;;;;;20631838;28;20042;-77
2022/01/06 19:52:47;;;;;;;3.38;1.77;;;12.20;56.90;;;;;;20614148;28;20396;-77
2022/01/06 20:02:47;;;;;;;4.22;2.00;;;12.10;56.90;;;;;;20630360;28;20058;-78
2022/01/06 20:12:48;;;;;;;4.47;2.33;;;12.10;56.90;;;;;;20635597;28;20077;-76
2022/01/06 20:22:53;;;;;;;2.60;1.90;;;12.10;56.80;;;;;;20609907;28;20286;-77
2022/01/06 20:32:53;;;;;;;6.13;2.30;;;12.10;56.70;;;;;;20612793;28;20436;-77
2022/01/06 20:42:56;;;;;;;3.38;1.73;;;12.10;56.70;;;;;;20621052;28;20137;-76
2022/01/06 20:52:57;;;;;;;7.53;1.67;;;12.10;56.70;;;;;;20626553;28;20041;-76
2022/01/06 21:02:58;;;;;;;7.30;2.47;;;12.10;56.70;;;;;;20609418;28;20035;-77
2022/01/06 21:12:59;;;;;;;4.30;2.28;;;12.10;56.70;;;;;;20638911;28;20304;-77
2022/01/06 21:22:59;;;;;;;4.95;2.00;;;12.00;56.60;;;;;;20603619;28;20378;-76
2022/01/06 21:33:00;;;;;;;7.30;2.70;;;12.10;56.90;;;;;;20638421;28;20038;-79
2022/01/06 21:43:02;;;;;;;5.25;1.80;;;12.00;56.60;;;;;;20622290;28;20510;-77
2022/01/06 21:53:02;;;;;;;3.70;2.35;;;12.10;56.70;;;;;;20636746;28;20081;-78
2022/01/06 22:03:03;;;;;;;5.55;2.03;;;12.00;56.60;;;;;;20636183;28;20125;-76
2022/01/06 22:13:04;;;;;;;6.93;1.77;;;12.00;56.50;;;;;;20651082;28;20301;-76
2022/01/06 22:23:05;;;;;;;5.83;1.90;;;12.00;56.50;;;;;;20634712;28;20048;-77
2022/01/06 22:33:05;;;;;;;3.72;1.40;;;12.00;56.50;;;;;;20631648;28;20386;-77
2022/01/06 22:43:07;;;;;;;3.50;1.52;;;12.10;56.60;;;;;;20617404;28;20122;-77
2022/01/06 22:53:08;;;;;;;4.63;2.03;;;12.00;56.50;;;;;;20633542;28;20400;-77
2022/01/06 23:03:08;;;;;;;3.50;1.42;;;12.00;56.50;;;;;;20617204;28;20042;-77
2022/01/06 23:13:09;;;;;;;2.97;1.63;;;12.00;56.50;;;;;;20601020;28;20042;-78
2022/01/06 23:23:10;;;;;;;4.85;1.58;;;12.00;56.60;;;;;;20622354;28;20329;-76
2022/01/06 23:33:10;;;;;;;3.37;1.67;;;11.90;56.50;;;;;;20613953;28;20074;-75
2022/01/06 23:43:11;;;;;;;4.93;1.80;;;11.90;56.50;;;;;;20630522;28;20825;-75
2022/01/06 23:53:12;;;;;;;3.22;1.70;;;11.90;56.50;;;;;;20630021;28;20041;-75
